createdAt,value
2023-02-12T00:00:12.211Z,17
2023-02-12T00:00:24.999Z,18
2023-02-12T00:00:36.587Z,17
2023-02-12T00:00:48.875Z,16
2023-02-12T00:01:00.446Z,16
2023-02-12T00:01:11.132Z,17
2023-02-12T00:01:23.950Z,18
2023-02-12T00:01:36.236Z,17
2023-02-12T00:01:48.485Z,18
2023-02-12T00:01:59.148Z,18
2023-02-12T00:02:10.767Z,18
2023-02-12T00:02:22.364Z,17
2023-02-12T00:02:34.699Z,18
2023-02-12T00:02:47.465Z,17
2023-02-12T00:02:58.079Z,16
2023-02-12T00:03:08.738Z,17
2023-02-12T00:03:19.447Z,17
2023-02-12T00:03:31.810Z,17
2023-02-12T00:03:42.480Z,17
2023-02-12T00:03:53.191Z,17
2023-02-12T00:04:03.857Z,17
2023-02-12T00:04:14.485Z,16
2023-02-12T00:04:27.549Z,17
2023-02-12T00:04:39.081Z,17
2023-02-12T00:04:49.707Z,17
2023-02-12T00:05:01.264Z,17
2023-02-12T00:05:11.825Z,17
2023-02-12T00:05:24.128Z,17
2023-02-12T00:05:36.426Z,16
2023-02-12T00:05:47.003Z,17
2023-02-12T00:05:57.585Z,17
2023-02-12T00:06:09.747Z,18
2023-02-12T00:06:23.751Z,18
2023-02-12T00:06:36.039Z,17
2023-02-12T00:06:47.707Z,17
2023-02-12T00:06:59.303Z,17
2023-02-12T00:07:10.865Z,17
2023-02-12T00:07:21.521Z,16
2023-02-12T00:07:33.125Z,17
2023-02-12T00:07:44.967Z,17
2023-02-12T00:07:56.615Z,17
2023-02-12T00:08:08.678Z,17
2023-02-12T00:08:19.334Z,16
2023-02-12T00:08:31.370Z,17
2023-02-12T00:08:41.950Z,17
2023-02-12T00:08:53.475Z,17
2023-02-12T00:09:04.138Z,17
2023-02-12T00:09:15.666Z,17
2023-02-12T00:09:28.012Z,17
2023-02-12T00:09:38.712Z,16
2023-02-12T00:09:50.255Z,17
2023-02-12T00:10:01.879Z,17
2023-02-12T00:10:13.517Z,16
2023-02-12T00:10:25.586Z,17
2023-02-12T00:10:37.636Z,17
2023-02-12T00:10:50.688Z,17
2023-02-12T00:11:02.484Z,16
2023-02-12T00:11:13.084Z,18
2023-02-12T00:11:23.658Z,18
2023-02-12T00:11:37.151Z,18
2023-02-12T00:11:49.966Z,17
2023-02-12T00:12:02.050Z,18
2023-02-12T00:12:12.638Z,17
2023-02-12T00:12:24.969Z,17
2023-02-12T00:12:35.607Z,18
2023-02-12T00:12:47.170Z,18
2023-02-12T00:12:59.474Z,18
2023-02-12T00:13:10.108Z,18
2023-02-12T00:13:21.699Z,18
2023-02-12T00:13:32.315Z,17
2023-02-12T00:13:44.415Z,17
2023-02-12T00:13:57.480Z,17
2023-02-12T00:14:09.027Z,18
2023-02-12T00:14:21.357Z,17
2023-02-12T00:14:34.154Z,17
2023-02-12T00:14:46.441Z,17
2023-02-12T00:14:57.096Z,17
2023-02-12T00:15:10.650Z,17
2023-02-12T00:15:22.930Z,17
2023-02-12T00:15:33.578Z,17
2023-02-12T00:15:45.398Z,17
2023-02-12T00:15:57.997Z,17
2023-02-12T00:16:08.810Z,16
2023-02-12T00:16:20.491Z,17
2023-02-12T00:16:32.089Z,17
2023-02-12T00:16:44.393Z,17
2023-02-12T00:16:57.995Z,17
2023-02-12T00:17:10.330Z,17
2023-02-12T00:17:22.662Z,17
2023-02-12T00:17:34.292Z,18
2023-02-12T00:17:44.871Z,17
2023-02-12T00:17:55.553Z,17
2023-02-12T00:18:06.159Z,17
2023-02-12T00:18:17.020Z,18
2023-02-12T00:18:27.809Z,18
2023-02-12T00:18:40.099Z,17
2023-02-12T00:18:50.758Z,17
2023-02-12T00:19:01.369Z,18
2023-02-12T00:19:11.988Z,17
2023-02-12T00:19:22.578Z,17
2023-02-12T00:19:34.859Z,17
2023-02-12T00:19:45.458Z,18
2023-02-12T00:19:57.740Z,18
2023-02-12T00:20:08.338Z,18
2023-02-12T00:20:21.949Z,17
2023-02-12T00:20:34.291Z,18
2023-02-12T00:20:44.923Z,18
2023-02-12T00:20:57.229Z,19
2023-02-12T00:21:10.679Z,18
2023-02-12T00:21:22.256Z,18
2023-02-12T00:21:32.864Z,18
2023-02-12T00:21:43.479Z,19
2023-02-12T00:21:54.660Z,19
2023-02-12T00:22:05.318Z,19
2023-02-12T00:22:17.368Z,18
2023-02-12T00:22:29.120Z,18
2023-02-12T00:22:40.702Z,18
2023-02-12T00:22:52.998Z,17
2023-02-12T00:23:05.267Z,19
2023-02-12T00:23:16.820Z,19
2023-02-12T00:23:29.132Z,19
2023-02-12T00:23:40.941Z,18
2023-02-12T00:23:51.549Z,18
2023-02-12T00:24:02.201Z,18
2023-02-12T00:24:13.770Z,18
2023-02-12T00:24:26.021Z,18
2023-02-12T00:24:36.733Z,18
2023-02-12T00:24:48.321Z,18
2023-02-12T00:24:58.940Z,18
2023-02-12T00:25:11.216Z,18
2023-02-12T00:25:23.280Z,19
2023-02-12T00:25:35.335Z,18
2023-02-12T00:25:46.882Z,18
2023-02-12T00:25:57.729Z,18
2023-02-12T00:26:08.420Z,18
2023-02-12T00:26:21.462Z,18
2023-02-12T00:26:32.061Z,18
2023-02-12T00:26:43.692Z,18
2023-02-12T00:26:54.309Z,19
2023-02-12T00:27:06.634Z,18
2023-02-12T00:27:19.193Z,18
2023-02-12T00:27:30.811Z,17
2023-02-12T00:27:42.361Z,18
2023-02-12T00:27:54.670Z,19
2023-02-12T00:28:05.308Z,19
2023-02-12T00:28:15.946Z,20
2023-02-12T00:28:27.563Z,19
2023-02-12T00:28:39.247Z,19
2023-02-12T00:28:51.571Z,19
2023-02-12T00:29:03.211Z,19
2023-02-12T00:29:13.838Z,18
2023-02-12T00:29:25.431Z,19
2023-02-12T00:29:36.052Z,19
2023-02-12T00:29:48.367Z,19
2023-02-12T00:29:58.945Z,18
2023-02-12T00:30:09.523Z,18
2023-02-12T00:30:20.105Z,19
2023-02-12T00:30:31.704Z,19
2023-02-12T00:30:42.326Z,20
2023-02-12T00:30:53.184Z,19
2023-02-12T00:31:06.415Z,19
2023-02-12T00:31:17.245Z,19
2023-02-12T00:31:29.430Z,20
2023-02-12T00:31:40.171Z,20
2023-02-12T00:31:51.812Z,19
2023-02-12T00:32:02.480Z,19
2023-02-12T00:32:13.125Z,19
2023-02-12T00:32:25.414Z,19
2023-02-12T00:32:38.468Z,18
2023-02-12T00:32:51.272Z,19
2023-02-12T00:33:03.371Z,19
2023-02-12T00:33:15.727Z,18
2023-02-12T00:33:28.771Z,17
2023-02-12T00:33:40.352Z,18
2023-02-12T00:33:52.653Z,18
2023-02-12T00:34:04.241Z,19
2023-02-12T00:34:16.288Z,19
2023-02-12T00:34:28.583Z,19
2023-02-12T00:34:40.872Z,19
2023-02-12T00:34:51.493Z,19
2023-02-12T00:35:03.584Z,19
2023-02-12T00:35:14.242Z,19
2023-02-12T00:35:26.044Z,20
2023-02-12T00:35:40.093Z,20
2023-02-12T00:35:50.706Z,20
2023-02-12T00:36:02.987Z,20
2023-02-12T00:36:14.789Z,19
2023-02-12T00:36:25.400Z,19
2023-02-12T00:36:38.182Z,19
2023-02-12T00:36:49.751Z,19
2023-02-12T00:37:02.031Z,19
2023-02-12T00:37:13.604Z,19
2023-02-12T00:37:25.181Z,19
2023-02-12T00:37:37.233Z,19
2023-02-12T00:37:49.553Z,19
2023-02-12T00:38:01.333Z,19
2023-02-12T00:38:11.967Z,19
2023-02-12T00:38:24.748Z,19
2023-02-12T00:38:36.345Z,20
2023-02-12T00:38:46.962Z,20
2023-02-12T00:38:57.551Z,20
2023-02-12T00:39:09.074Z,20
2023-02-12T00:39:21.522Z,20
2023-02-12T00:39:32.259Z,21
2023-02-12T00:39:45.876Z,21
2023-02-12T00:39:57.435Z,19
2023-02-12T00:40:08.065Z,19
2023-02-12T00:40:19.656Z,20
2023-02-12T00:40:30.284Z,20
2023-02-12T00:40:40.874Z,19
2023-02-12T00:40:53.166Z,19
2023-02-12T00:41:04.739Z,19
2023-02-12T00:41:16.283Z,20
2023-02-12T00:41:28.592Z,21
2023-02-12T00:41:41.674Z,21
2023-02-12T00:41:54.822Z,20
2023-02-12T00:42:07.376Z,20
2023-02-12T00:42:19.934Z,20
2023-02-12T00:42:31.503Z,20
2023-02-12T00:42:43.073Z,20
2023-02-12T00:42:53.664Z,20
2023-02-12T00:43:06.642Z,21
2023-02-12T00:43:18.224Z,20
2023-02-12T00:43:28.857Z,21
2023-02-12T00:43:40.905Z,20
2023-02-12T00:43:51.634Z,20
2023-02-12T00:44:03.187Z,20
2023-02-12T00:44:15.465Z,20
2023-02-12T00:44:27.792Z,20
2023-02-12T00:44:40.336Z,20
2023-02-12T00:44:52.415Z,20
2023-02-12T00:45:03.001Z,19
2023-02-12T00:45:16.044Z,19
2023-02-12T00:45:26.685Z,19
2023-02-12T00:45:37.340Z,20
2023-02-12T00:45:49.169Z,21
2023-02-12T00:45:59.850Z,21
2023-02-12T00:46:11.433Z,21
2023-02-12T00:46:24.501Z,21
2023-02-12T00:46:36.155Z,20
2023-02-12T00:46:48.554Z,22
2023-02-12T00:47:01.838Z,22
2023-02-12T00:47:12.446Z,22
2023-02-12T00:47:24.016Z,21
2023-02-12T00:47:34.625Z,21
2023-02-12T00:47:46.227Z,21
2023-02-12T00:47:58.793Z,22
2023-02-12T00:48:11.334Z,22
2023-02-12T00:48:21.950Z,22
2023-02-12T00:48:34.731Z,20
2023-02-12T00:48:45.348Z,19
2023-02-12T00:48:56.906Z,20
2023-02-12T00:49:08.512Z,20
2023-02-12T00:49:20.821Z,21
2023-02-12T00:49:31.454Z,21
2023-02-12T00:49:42.035Z,22
2023-02-12T00:49:52.647Z,21
2023-02-12T00:50:03.295Z,21
2023-02-12T00:50:14.976Z,20
2023-02-12T00:50:25.585Z,20
2023-02-12T00:50:37.157Z,21
2023-02-12T00:50:47.755Z,22
2023-02-12T00:50:58.369Z,21
2023-02-12T00:51:08.950Z,21
2023-02-12T00:51:19.525Z,20
2023-02-12T00:51:30.090Z,20
2023-02-12T00:51:40.721Z,21
2023-02-12T00:51:53.679Z,21
2023-02-12T00:52:06.118Z,20
2023-02-12T00:52:19.830Z,20
2023-02-12T00:52:31.895Z,20
2023-02-12T00:52:43.508Z,21
2023-02-12T00:52:54.123Z,20
2023-02-12T00:53:08.201Z,21
2023-02-12T00:53:19.774Z,21
2023-02-12T00:53:30.328Z,22
2023-02-12T00:53:42.420Z,21
2023-02-12T00:53:55.498Z,21
2023-02-12T00:54:07.817Z,21
2023-02-12T00:54:18.434Z,21
2023-02-12T00:54:29.068Z,22
2023-02-12T00:54:41.388Z,21
2023-02-12T00:54:51.968Z,21
2023-02-12T00:55:03.540Z,21
2023-02-12T00:55:14.183Z,21
2023-02-12T00:55:25.791Z,21
2023-02-12T00:55:37.327Z,20
2023-02-12T00:55:47.972Z,22
2023-02-12T00:56:02.038Z,22
2023-02-12T00:56:15.078Z,22
2023-02-12T00:56:25.688Z,20
2023-02-12T00:56:36.331Z,20
2023-02-12T00:56:48.666Z,21
2023-02-12T00:57:01.715Z,21
2023-02-12T00:57:14.062Z,20
2023-02-12T00:57:26.125Z,21
2023-02-12T00:57:36.714Z,21
2023-02-12T00:57:48.767Z,21
2023-02-12T00:58:01.837Z,21
2023-02-12T00:58:14.155Z,21
2023-02-12T00:58:24.735Z,20
2023-02-12T00:58:36.317Z,21
2023-02-12T00:58:47.937Z,21
2023-02-12T00:58:58.561Z,22
2023-02-12T00:59:10.852Z,22
2023-02-12T00:59:21.430Z,22
2023-02-12T00:59:33.010Z,21
2023-02-12T00:59:43.623Z,20
2023-02-12T00:59:55.241Z,21
2023-02-12T01:00:06.820Z,22
2023-02-12T01:00:19.082Z,21
2023-02-12T01:00:30.690Z,21
2023-02-12T01:00:41.348Z,21
2023-02-12T01:00:51.939Z,21
2023-02-12T01:01:04.079Z,20
2023-02-12T01:01:14.820Z,21
2023-02-12T01:01:25.468Z,21
2023-02-12T01:01:37.132Z,21
2023-02-12T01:01:49.290Z,21
2023-02-12T01:02:02.897Z,21
2023-02-12T01:02:14.490Z,21
2023-02-12T01:02:26.837Z,20
2023-02-12T01:02:37.444Z,22
2023-02-12T01:02:49.018Z,22
2023-02-12T01:03:01.295Z,22
2023-02-12T01:03:11.937Z,22
2023-02-12T01:03:24.054Z,21
2023-02-12T01:03:35.612Z,21
2023-02-12T01:03:47.200Z,22
2023-02-12T01:03:59.640Z,22
2023-02-12T01:04:10.300Z,22
2023-02-12T01:04:22.643Z,21
2023-02-12T01:04:33.266Z,21
2023-02-12T01:04:44.901Z,21
2023-02-12T01:04:55.837Z,20
2023-02-12T01:05:07.479Z,20
2023-02-12T01:05:18.213Z,20
2023-02-12T01:05:28.895Z,21
2023-02-12T01:05:41.223Z,21
2023-02-12T01:05:51.862Z,22
2023-02-12T01:06:02.532Z,21
2023-02-12T01:06:13.188Z,22
2023-02-12T01:06:23.883Z,22
2023-02-12T01:06:35.433Z,22
2023-02-12T01:06:46.059Z,21
2023-02-12T01:06:56.667Z,21
2023-02-12T01:07:07.341Z,21
2023-02-12T01:07:17.936Z,21
2023-02-12T01:07:28.545Z,21
2023-02-12T01:07:39.174Z,20
2023-02-12T01:07:50.963Z,21
2023-02-12T01:08:03.252Z,21
2023-02-12T01:08:13.884Z,21
2023-02-12T01:08:26.197Z,21
2023-02-12T01:08:37.784Z,21
2023-02-12T01:08:50.134Z,21
2023-02-12T01:09:00.733Z,21
2023-02-12T01:09:11.313Z,21
2023-02-12T01:09:23.607Z,21
2023-02-12T01:09:35.131Z,21
2023-02-12T01:09:47.402Z,22
2023-02-12T01:09:59.565Z,22
2023-02-12T01:10:10.195Z,22
2023-02-12T01:10:20.785Z,21
2023-02-12T01:10:33.939Z,20
2023-02-12T01:10:44.537Z,21
2023-02-12T01:10:55.174Z,22
2023-02-12T01:11:07.469Z,22
2023-02-12T01:11:18.045Z,22
2023-02-12T01:11:29.617Z,21
2023-02-12T01:11:41.906Z,22
2023-02-12T01:11:53.516Z,22
2023-02-12T01:12:05.101Z,22
2023-02-12T01:12:17.255Z,22
2023-02-12T01:12:29.544Z,22
2023-02-12T01:12:40.139Z,21
2023-02-12T01:12:50.773Z,21
2023-02-12T01:13:03.117Z,21
2023-02-12T01:13:15.370Z,20
2023-02-12T01:13:26.011Z,21
2023-02-12T01:13:37.570Z,21
2023-02-12T01:13:50.379Z,23
2023-02-12T01:14:01.956Z,23
2023-02-12T01:14:12.608Z,24
2023-02-12T01:14:23.260Z,23
2023-02-12T01:14:33.877Z,22
2023-02-12T01:14:46.728Z,22
2023-02-12T01:14:59.321Z,22
2023-02-12T01:15:10.912Z,22
2023-02-12T01:15:21.486Z,22
2023-02-12T01:15:33.081Z,22
2023-02-12T01:15:43.736Z,22
2023-02-12T01:15:55.575Z,22
2023-02-12T01:16:07.790Z,22
2023-02-12T01:16:18.582Z,21
2023-02-12T01:16:31.293Z,21
2023-02-12T01:16:41.919Z,21
2023-02-12T01:16:54.019Z,22
2023-02-12T01:17:04.640Z,23
2023-02-12T01:17:16.238Z,24
2023-02-12T01:17:28.314Z,24
2023-02-12T01:17:38.935Z,23
2023-02-12T01:17:50.536Z,22
2023-02-12T01:18:01.159Z,22
2023-02-12T01:18:12.715Z,24
2023-02-12T01:18:24.257Z,25
2023-02-12T01:18:34.970Z,26
2023-02-12T01:18:46.569Z,26
2023-02-12T01:18:58.179Z,25
2023-02-12T01:19:08.770Z,25
2023-02-12T01:19:19.628Z,24
2023-02-12T01:19:30.237Z,24
2023-02-12T01:19:40.909Z,23
2023-02-12T01:19:51.510Z,24
2023-02-12T01:20:02.164Z,25
2023-02-12T01:20:13.644Z,24
2023-02-12T01:20:25.778Z,23
2023-02-12T01:20:37.318Z,24
2023-02-12T01:20:47.938Z,23
2023-02-12T01:20:58.568Z,23
2023-02-12T01:21:09.171Z,23
2023-02-12T01:21:19.803Z,22
2023-02-12T01:21:30.399Z,22
2023-02-12T01:21:41.951Z,23
2023-02-12T01:21:53.538Z,22
2023-02-12T01:22:04.147Z,24
2023-02-12T01:22:16.699Z,23
2023-02-12T01:22:28.317Z,24
2023-02-12T01:22:38.934Z,23
2023-02-12T01:22:50.509Z,23
2023-02-12T01:23:02.106Z,23
2023-02-12T01:23:12.743Z,24
2023-02-12T01:23:25.581Z,23
2023-02-12T01:23:36.220Z,23
2023-02-12T01:23:47.814Z,23
2023-02-12T01:23:58.444Z,23
2023-02-12T01:24:09.044Z,23
2023-02-12T01:24:19.649Z,24
2023-02-12T01:24:31.245Z,24
2023-02-12T01:24:43.531Z,24
2023-02-12T01:24:55.860Z,25
2023-02-12T01:25:08.004Z,25
2023-02-12T01:25:21.618Z,25
2023-02-12T01:25:32.240Z,25
2023-02-12T01:25:42.875Z,25
2023-02-12T01:25:55.517Z,25
2023-02-12T01:26:08.761Z,24
2023-02-12T01:26:21.386Z,24
2023-02-12T01:26:34.150Z,23
2023-02-12T01:26:45.717Z,24
2023-02-12T01:26:57.811Z,24
2023-02-12T01:27:09.867Z,24
2023-02-12T01:27:22.181Z,24
2023-02-12T01:27:32.795Z,24
2023-02-12T01:27:43.364Z,24
2023-02-12T01:27:54.000Z,25
2023-02-12T01:28:05.821Z,24
2023-02-12T01:28:18.918Z,24
2023-02-12T01:28:29.593Z,24
2023-02-12T01:28:41.406Z,24
2023-02-12T01:28:53.801Z,25
2023-02-12T01:29:05.456Z,25
2023-02-12T01:29:17.726Z,26
2023-02-12T01:29:30.779Z,25
2023-02-12T01:29:43.055Z,24
2023-02-12T01:29:56.092Z,24
2023-02-12T01:30:08.393Z,24
2023-02-12T01:30:20.653Z,23
2023-02-12T01:30:32.972Z,25
2023-02-12T01:30:43.692Z,25
2023-02-12T01:30:55.350Z,24
2023-02-12T01:31:06.019Z,23
2023-02-12T01:31:17.721Z,24
2023-02-12T01:31:29.653Z,25
2023-02-12T01:31:40.554Z,25
2023-02-12T01:31:53.037Z,25
2023-02-12T01:32:06.233Z,25
2023-02-12T01:32:18.697Z,24
2023-02-12T01:32:30.540Z,23
2023-02-12T01:32:42.166Z,24
2023-02-12T01:32:54.505Z,23
2023-02-12T01:33:05.136Z,23
2023-02-12T01:33:15.733Z,24
2023-02-12T01:33:28.050Z,24
2023-02-12T01:33:40.308Z,24
2023-02-12T01:33:50.984Z,24
2023-02-12T01:34:01.623Z,24
2023-02-12T01:34:12.229Z,24
2023-02-12T01:34:23.793Z,25
2023-02-12T01:34:34.373Z,25
2023-02-12T01:34:46.934Z,25
2023-02-12T01:34:58.990Z,24
2023-02-12T01:35:09.587Z,25
2023-02-12T01:35:21.928Z,25
2023-02-12T01:35:34.244Z,25
2023-02-12T01:35:44.865Z,26
2023-02-12T01:35:56.793Z,25
2023-02-12T01:36:08.493Z,26
2023-02-12T01:36:19.095Z,25
2023-02-12T01:36:29.752Z,25
2023-02-12T01:36:41.292Z,24
2023-02-12T01:36:53.371Z,26
2023-02-12T01:37:05.642Z,26
2023-02-12T01:37:17.784Z,25
2023-02-12T01:37:29.856Z,23
2023-02-12T01:37:41.467Z,24
2023-02-12T01:37:52.126Z,25
2023-02-12T01:38:03.704Z,25
2023-02-12T01:38:14.385Z,24
2023-02-12T01:38:27.144Z,24
2023-02-12T01:38:37.869Z,25
2023-02-12T01:38:49.406Z,25
2023-02-12T01:39:00.994Z,26
2023-02-12T01:39:11.587Z,25
2023-02-12T01:39:23.884Z,25
2023-02-12T01:39:34.465Z,25
2023-02-12T01:39:45.108Z,24
2023-02-12T01:39:56.693Z,24
2023-02-12T01:40:08.976Z,24
2023-02-12T01:40:20.582Z,25
2023-02-12T01:40:31.196Z,25
2023-02-12T01:40:42.754Z,25
2023-02-12T01:40:53.360Z,24
2023-02-12T01:41:03.935Z,24
2023-02-12T01:41:14.524Z,24
2023-02-12T01:41:26.122Z,25
2023-02-12T01:41:36.715Z,25
2023-02-12T01:41:47.299Z,25
2023-02-12T01:41:57.905Z,25
2023-02-12T01:42:09.456Z,24
2023-02-12T01:42:20.067Z,24
2023-02-12T01:42:30.675Z,25
2023-02-12T01:42:42.274Z,25
2023-02-12T01:42:52.908Z,25
2023-02-12T01:43:05.195Z,25
2023-02-12T01:43:18.736Z,24
2023-02-12T01:43:29.317Z,24
2023-02-12T01:43:41.410Z,25
2023-02-12T01:43:52.051Z,24
2023-02-12T01:44:04.325Z,25
2023-02-12T01:44:16.645Z,25
2023-02-12T01:44:28.428Z,25
2023-02-12T01:44:40.024Z,25
2023-02-12T01:44:53.076Z,25
2023-02-12T01:45:03.713Z,26
2023-02-12T01:45:16.247Z,26
2023-02-12T01:45:28.559Z,26
2023-02-12T01:45:39.193Z,25
2023-02-12T01:45:51.496Z,25
2023-02-12T01:46:04.579Z,26
2023-02-12T01:46:16.998Z,27
2023-02-12T01:46:28.621Z,26
2023-02-12T01:46:39.300Z,27
2023-02-12T01:46:51.196Z,27
2023-02-12T01:47:03.499Z,26
2023-02-12T01:47:15.884Z,26
2023-02-12T01:47:27.958Z,25
2023-02-12T01:47:39.549Z,25
2023-02-12T01:47:50.191Z,26
2023-02-12T01:48:02.277Z,27
2023-02-12T01:48:14.366Z,28
2023-02-12T01:48:26.448Z,28
2023-02-12T01:48:38.727Z,27
2023-02-12T01:48:50.290Z,26
2023-02-12T01:49:03.253Z,26
2023-02-12T01:49:15.310Z,25
2023-02-12T01:49:27.624Z,25
2023-02-12T01:49:39.677Z,25
2023-02-12T01:49:51.729Z,24
2023-02-12T01:50:03.278Z,26
2023-02-12T01:50:15.437Z,25
2023-02-12T01:50:26.062Z,26
2023-02-12T01:50:38.408Z,26
2023-02-12T01:50:50.713Z,25
2023-02-12T01:51:01.317Z,24
2023-02-12T01:51:12.857Z,24
2023-02-12T01:51:24.440Z,25
2023-02-12T01:51:37.496Z,26
2023-02-12T01:51:49.551Z,26
2023-02-12T01:52:00.177Z,25
2023-02-12T01:52:13.617Z,25
2023-02-12T01:52:24.230Z,25
2023-02-12T01:52:36.310Z,25
2023-02-12T01:52:46.894Z,25
2023-02-12T01:52:59.967Z,25
2023-02-12T01:53:11.520Z,25
2023-02-12T01:53:22.107Z,27
2023-02-12T01:53:34.378Z,26
2023-02-12T01:53:46.659Z,26
2023-02-12T01:53:59.287Z,25
2023-02-12T01:54:09.904Z,26
2023-02-12T01:54:21.461Z,26
2023-02-12T01:54:32.117Z,28
2023-02-12T01:54:42.793Z,27
2023-02-12T01:54:56.155Z,26
2023-02-12T01:55:08.589Z,25
2023-02-12T01:55:20.248Z,25
2023-02-12T01:55:34.400Z,26
2023-02-12T01:55:46.669Z,27
2023-02-12T01:55:58.280Z,27
2023-02-12T01:56:10.642Z,27
2023-02-12T01:56:24.196Z,26
2023-02-12T01:56:36.495Z,25
2023-02-12T01:56:47.120Z,26
2023-02-12T01:57:00.169Z,27
2023-02-12T01:57:10.820Z,26
2023-02-12T01:57:22.450Z,27
2023-02-12T01:57:34.762Z,26
2023-02-12T01:57:45.414Z,26
2023-02-12T01:57:56.022Z,26
2023-02-12T01:58:06.625Z,26
2023-02-12T01:58:18.920Z,26
2023-02-12T01:58:29.530Z,27
2023-02-12T01:58:40.173Z,27
2023-02-12T01:58:51.832Z,28
2023-02-12T01:59:03.423Z,28
2023-02-12T01:59:14.075Z,27
2023-02-12T01:59:24.702Z,26
2023-02-12T01:59:36.313Z,26
2023-02-12T01:59:47.894Z,27
2023-02-12T01:59:59.456Z,26
2023-02-12T02:00:11.024Z,25
2023-02-12T02:00:22.584Z,26
2023-02-12T02:00:34.863Z,27
2023-02-12T02:00:47.949Z,28
2023-02-12T02:00:58.553Z,26
2023-02-12T02:01:10.866Z,26
2023-02-12T02:01:23.256Z,26
2023-02-12T02:01:33.888Z,27
2023-02-12T02:01:44.657Z,27
2023-02-12T02:01:55.394Z,27
2023-02-12T02:02:06.120Z,28
2023-02-12T02:02:17.745Z,27
2023-02-12T02:02:29.811Z,26
2023-02-12T02:02:42.121Z,27
2023-02-12T02:02:52.744Z,26
2023-02-12T02:03:04.805Z,26
2023-02-12T02:03:17.129Z,26
2023-02-12T02:03:27.816Z,27
2023-02-12T02:03:38.469Z,29
2023-02-12T02:03:51.494Z,27
2023-02-12T02:04:02.162Z,27
2023-02-12T02:04:14.456Z,27
2023-02-12T02:04:26.730Z,27
2023-02-12T02:04:38.254Z,26
2023-02-12T02:04:50.573Z,27
2023-02-12T02:05:02.837Z,27
2023-02-12T02:05:13.483Z,28
2023-02-12T02:05:25.537Z,28
2023-02-12T02:05:37.620Z,27
2023-02-12T02:05:48.270Z,27
2023-02-12T02:06:00.571Z,27
2023-02-12T02:06:12.117Z,26
2023-02-12T02:06:23.701Z,26
2023-02-12T02:06:36.770Z,26
2023-02-12T02:06:48.859Z,25
2023-02-12T02:06:59.443Z,26
2023-02-12T02:07:13.491Z,27
2023-02-12T02:07:26.469Z,27
2023-02-12T02:07:37.123Z,27
2023-02-12T02:07:48.705Z,27
2023-02-12T02:07:59.336Z,27
2023-02-12T02:08:11.396Z,27
2023-02-12T02:08:24.954Z,27
2023-02-12T02:08:36.293Z,27
2023-02-12T02:08:46.927Z,29
2023-02-12T02:08:59.242Z,27
2023-02-12T02:09:09.910Z,27
2023-02-12T02:09:22.695Z,26
2023-02-12T02:09:34.263Z,26
2023-02-12T02:09:45.842Z,26
2023-02-12T02:09:56.498Z,27
2023-02-12T02:10:08.577Z,28
2023-02-12T02:10:19.224Z,26
2023-02-12T02:10:29.793Z,26
2023-02-12T02:10:40.463Z,26
2023-02-12T02:10:51.075Z,27
2023-02-12T02:11:01.716Z,27
2023-02-12T02:11:12.382Z,28
2023-02-12T02:11:22.993Z,27
2023-02-12T02:11:34.590Z,28
2023-02-12T02:11:45.213Z,28
2023-02-12T02:11:57.488Z,27
2023-02-12T02:12:09.051Z,26
2023-02-12T02:12:20.626Z,26
2023-02-12T02:12:31.226Z,27
2023-02-12T02:12:42.807Z,26
2023-02-12T02:12:53.536Z,26
2023-02-12T02:13:06.313Z,27
2023-02-12T02:13:16.942Z,27
2023-02-12T02:13:27.586Z,26
2023-02-12T02:13:38.232Z,26
2023-02-12T02:13:49.805Z,26
2023-02-12T02:14:00.383Z,26
2023-02-12T02:14:13.865Z,26
2023-02-12T02:14:25.440Z,26
2023-02-12T02:14:36.043Z,27
2023-02-12T02:14:48.080Z,27
2023-02-12T02:15:01.135Z,26
2023-02-12T02:15:11.737Z,26
2023-02-12T02:15:23.843Z,25
2023-02-12T02:15:36.174Z,26
2023-02-12T02:15:47.790Z,25
2023-02-12T02:16:00.470Z,24
2023-02-12T02:16:13.432Z,24
2023-02-12T02:16:24.130Z,24
2023-02-12T02:16:35.669Z,25
2023-02-12T02:16:47.272Z,25
2023-02-12T02:17:00.040Z,25
2023-02-12T02:17:10.664Z,25
2023-02-12T02:17:22.952Z,26
2023-02-12T02:17:33.610Z,26
2023-02-12T02:17:46.442Z,26
2023-02-12T02:17:57.038Z,27
2023-02-12T02:18:09.093Z,27
2023-02-12T02:18:21.412Z,27
2023-02-12T02:18:32.982Z,27
2023-02-12T02:18:44.670Z,26
2023-02-12T02:18:55.302Z,26
2023-02-12T02:19:06.907Z,26
2023-02-12T02:19:17.545Z,25
2023-02-12T02:19:28.224Z,25
2023-02-12T02:19:39.851Z,24
2023-02-12T02:19:51.477Z,25
2023-02-12T02:20:03.041Z,26
2023-02-12T02:20:15.375Z,26
2023-02-12T02:20:27.000Z,25
2023-02-12T02:20:39.293Z,24
2023-02-12T02:20:51.593Z,25
2023-02-12T02:21:02.161Z,24
2023-02-12T02:21:13.755Z,25
2023-02-12T02:21:24.339Z,25
2023-02-12T02:21:35.905Z,24
2023-02-12T02:21:46.503Z,23
2023-02-12T02:21:57.120Z,23
2023-02-12T02:22:09.415Z,24
2023-02-12T02:22:21.732Z,25
2023-02-12T02:22:34.068Z,24
2023-02-12T02:22:45.852Z,24
2023-02-12T02:22:57.425Z,24
2023-02-12T02:23:09.223Z,24
2023-02-12T02:23:19.852Z,25
2023-02-12T02:23:31.423Z,25
2023-02-12T02:23:43.727Z,25
2023-02-12T02:23:55.324Z,24
2023-02-12T02:24:08.133Z,24
2023-02-12T02:24:18.713Z,24
2023-02-12T02:24:30.289Z,24
2023-02-12T02:24:42.572Z,24
2023-02-12T02:24:53.223Z,24
2023-02-12T02:25:06.328Z,23
2023-02-12T02:25:17.861Z,23
2023-02-12T02:25:29.912Z,24
2023-02-12T02:25:42.224Z,23
2023-02-12T02:25:54.169Z,23
2023-02-12T02:26:04.941Z,23
2023-02-12T02:26:15.555Z,22
2023-02-12T02:26:27.869Z,22
2023-02-12T02:26:40.903Z,22
2023-02-12T02:26:51.483Z,23
2023-02-12T02:27:03.071Z,23
2023-02-12T02:27:15.122Z,22
2023-02-12T02:27:27.754Z,23
2023-02-12T02:27:38.404Z,24
2023-02-12T02:27:49.984Z,24
2023-02-12T02:28:01.624Z,23
2023-02-12T02:28:13.243Z,25
2023-02-12T02:28:25.405Z,25
2023-02-12T02:28:37.302Z,26
2023-02-12T02:28:49.953Z,25
2023-02-12T02:29:02.523Z,24
2023-02-12T02:29:13.144Z,23
2023-02-12T02:29:25.233Z,23
2023-02-12T02:29:37.514Z,23
2023-02-12T02:29:50.132Z,23
2023-02-12T02:30:02.436Z,24
2023-02-12T02:30:13.905Z,24
2023-02-12T02:30:27.002Z,23
2023-02-12T02:30:39.411Z,23
2023-02-12T02:30:51.995Z,22
2023-02-12T02:31:03.662Z,23
2023-02-12T02:31:15.395Z,23
2023-02-12T02:31:27.722Z,23
2023-02-12T02:31:39.847Z,25
2023-02-12T02:31:50.614Z,24
2023-02-12T02:32:02.324Z,24
2023-02-12T02:32:13.903Z,23
2023-02-12T02:32:26.183Z,22
2023-02-12T02:32:38.507Z,21
2023-02-12T02:32:50.593Z,22
2023-02-12T02:33:01.236Z,22
2023-02-12T02:33:11.833Z,22
2023-02-12T02:33:23.874Z,22
2023-02-12T02:33:35.476Z,22
2023-02-12T02:33:47.757Z,24
2023-02-12T02:34:00.058Z,24
2023-02-12T02:34:10.788Z,23
2023-02-12T02:34:23.048Z,23
2023-02-12T02:34:34.881Z,23
2023-02-12T02:34:47.659Z,22
2023-02-12T02:34:59.975Z,21
2023-02-12T02:35:10.801Z,21
2023-02-12T02:35:21.438Z,23
2023-02-12T02:35:33.015Z,23
2023-02-12T02:35:45.093Z,23
2023-02-12T02:35:56.039Z,22
2023-02-12T02:36:08.493Z,22
2023-02-12T02:36:20.775Z,22
2023-02-12T02:36:32.846Z,23
2023-02-12T02:36:59.368Z,24
2023-02-12T02:37:01.469Z,22
2023-02-12T02:37:12.086Z,21
2023-02-12T02:37:22.758Z,21
2023-02-12T02:37:34.316Z,22
2023-02-12T02:37:45.882Z,22
2023-02-12T02:37:58.184Z,23
2023-02-12T02:38:09.791Z,23
2023-02-12T02:38:22.086Z,23
2023-02-12T02:38:34.648Z,22
2023-02-12T02:38:45.267Z,21
2023-02-12T02:38:55.962Z,21
2023-02-12T02:39:08.026Z,21
2023-02-12T02:39:21.008Z,22
2023-02-12T02:39:31.732Z,22
2023-02-12T02:39:43.273Z,23
2023-02-12T02:39:56.320Z,23
2023-02-12T02:40:08.153Z,21
2023-02-12T02:40:18.776Z,20
2023-02-12T02:40:29.408Z,21
2023-02-12T02:40:40.047Z,21
2023-02-12T02:40:50.649Z,21
2023-02-12T02:41:02.225Z,20
2023-02-12T02:41:14.577Z,20
2023-02-12T02:41:26.957Z,21
2023-02-12T02:41:37.555Z,21
2023-02-12T02:41:51.664Z,21
2023-02-12T02:42:02.237Z,20
2023-02-12T02:42:14.542Z,20
2023-02-12T02:42:26.859Z,21
2023-02-12T02:42:38.485Z,21
2023-02-12T02:42:49.113Z,20
2023-02-12T02:42:59.737Z,20
2023-02-12T02:43:11.313Z,20
2023-02-12T02:43:23.379Z,21
2023-02-12T02:43:34.965Z,20
2023-02-12T02:43:47.237Z,20
2023-02-12T02:43:59.288Z,20
2023-02-12T02:44:09.911Z,20
2023-02-12T02:44:20.557Z,20
2023-02-12T02:44:32.878Z,20
2023-02-12T02:44:45.927Z,20
2023-02-12T02:44:58.762Z,20
2023-02-12T02:45:09.337Z,20
2023-02-12T02:45:20.901Z,20
2023-02-12T02:45:33.674Z,20
2023-02-12T02:45:46.466Z,22